Time;durP1;ratioP1;P1;durP2;ratioP2;P2;SDS_P1;SDS_P2;PMS_P1;PMS_P2;Temp;Humidity;BMP_temperature;BMP_pressure;BME280_temperature;BME280_humidity;BME280_pressure;Samples;Min_cycle;Max_cycle;Signal;HPM_P1;HPM_P2
2021/07/29 00:01:20;;;;;;;;;;;26.10;96.50;;;;;;5105482;28;19912;-47
2021/07/29 00:03:47;;;;;;;;;;;26.10;96.60;;;;;;5105882;28;19900;-47
2021/07/29 00:06:15;;;;;;;;;;;26.10;96.60;;;;;;5105548;28;19914;-46
2021/07/29 00:08:42;;;;;;;;;;;26.10;96.50;;;;;;5071025;28;19919;-45
2021/07/29 00:11:12;;;;;;;;;;;26.00;96.40;;;;;;5105647;28;19908;-43
2021/07/29 00:13:39;;;;;;;;;;;26.00;96.60;;;;;;5105395;28;19974;-50
2021/07/29 00:16:07;;;;;;;;;;;26.00;96.60;;;;;;5104094;28;20127;-44
2021/07/29 00:21:18;;;;;;;;;;;26.00;96.40;;;;;;5105370;28;19927;-43
2021/07/29 00:23:50;;;;;;;;;;;26.00;96.30;;;;;;5105313;28;20210;-44
2021/07/29 00:26:17;;;;;;;;;;;26.00;96.30;;;;;;5095666;28;19927;-49
2021/07/29 00:28:47;;;;;;;;;;;26.00;96.20;;;;;;5094457;28;19900;-50
2021/07/29 00:31:17;;;;;;;;;;;26.00;96.30;;;;;;5069037;28;19920;-51
2021/07/29 00:33:45;;;;;;;;;;;26.00;96.20;;;;;;5093142;28;20106;-48
2021/07/29 00:36:21;;;;;;;;;;;25.90;96.20;;;;;;5093449;28;19953;-43
2021/07/29 00:38:47;;;;;;;;;;;25.90;96.20;;;;;;5069419;28;20205;-45
2021/07/29 00:41:15;;;;;;;;;;;25.80;96.40;;;;;;5099679;28;19995;-49
2021/07/29 00:43:42;;;;;;;;;;;25.80;96.20;;;;;;5081901;28;20227;-47
2021/07/29 00:46:08;;;;;;;;;;;25.80;96.30;;;;;;5083626;28;19904;-44
2021/07/29 00:48:37;;;;;;;;;;;25.80;96.40;;;;;;5065982;28;19966;-46
2021/07/29 00:51:06;;;;;;;;;;;25.80;96.40;;;;;;5048857;28;19904;-48
2021/07/29 00:53:36;;;;;;;;;;;25.80;96.30;;;;;;5083673;28;19942;-46
2021/07/29 00:56:03;;;;;;;;;;;25.80;96.50;;;;;;5049358;28;20054;-47
2021/07/29 00:58:30;;;;;;;;;;;25.80;96.50;;;;;;5065470;28;19970;-47
2021/07/29 01:00:57;;;;;;;;;;;25.80;96.50;;;;;;5064193;28;19908;-47
2021/07/29 01:03:26;;;;;;;;;;;25.80;96.40;;;;;;5082282;28;19923;-53
2021/07/29 01:05:54;;;;;;;;;;;25.70;96.50;;;;;;5083997;28;19901;-41
2021/07/29 01:08:24;;;;;;;;;;;25.80;96.50;;;;;;5092748;28;19900;-46
2021/07/29 01:10:50;;;;;;;;;;;25.80;96.50;;;;;;5094352;28;19923;-45
2021/07/29 01:13:17;;;;;;;;;;;25.80;96.60;;;;;;5070894;28;19904;-49
2021/07/29 01:15:45;;;;;;;;;;;25.80;96.50;;;;;;5089277;28;19908;-46
2021/07/29 01:18:12;;;;;;;;;;;25.80;96.50;;;;;;5084079;28;20010;-49
2021/07/29 01:20:38;;;;;;;;;;;25.80;96.40;;;;;;5068030;28;19951;-53
2021/07/29 01:23:11;;;;;;;;;;;25.80;96.50;;;;;;5092869;28;20135;-46
2021/07/29 01:25:37;;;;;;;;;;;25.80;96.40;;;;;;5092156;28;19907;-45
2021/07/29 01:28:06;;;;;;;;;;;25.80;96.30;;;;;;5088906;28;19990;-44
2021/07/29 01:30:34;;;;;;;;;;;25.70;96.50;;;;;;5092279;28;19971;-42
2021/07/29 01:33:03;;;;;;;;;;;25.80;96.50;;;;;;5092450;28;19954;-46
2021/07/29 01:35:29;;;;;;;;;;;25.80;96.50;;;;;;5058852;28;20196;-43
2021/07/29 01:37:58;;;;;;;;;;;25.80;96.50;;;;;;5089803;28;19921;-46
2021/07/29 01:40:24;;;;;;;;;;;25.70;96.50;;;;;;5064708;28;19987;-46
2021/07/29 01:42:53;;;;;;;;;;;25.70;96.60;;;;;;5066841;28;19908;-52
2021/07/29 01:45:20;;;;;;;;;;;25.70;96.60;;;;;;5067133;28;19942;-49
2021/07/29 01:47:48;;;;;;;;;;;25.70;96.60;;;;;;5088995;28;19908;-42
2021/07/29 01:50:16;;;;;;;;;;;25.70;96.60;;;;;;5093489;28;19931;-42
2021/07/29 01:52:43;;;;;;;;;;;25.70;96.70;;;;;;5092262;28;19908;-41
2021/07/29 01:55:10;;;;;;;;;;;25.70;96.50;;;;;;5093309;28;20108;-45
2021/07/29 01:57:38;;;;;;;;;;;25.70;96.60;;;;;;5093501;28;19908;-46
2021/07/29 02:00:08;;;;;;;;;;;25.70;96.60;;;;;;5090444;28;19950;-48
2021/07/29 02:02:35;;;;;;;;;;;25.70;96.60;;;;;;5089167;28;19915;-44
2021/07/29 02:05:01;;;;;;;;;;;25.70;96.60;;;;;;5092286;28;19913;-50
2021/07/29 02:07:29;;;;;;;;;;;25.70;96.60;;;;;;5093124;28;19983;-44
2021/07/29 02:09:56;;;;;;;;;;;25.70;96.60;;;;;;5067185;28;20180;-45
2021/07/29 02:12:24;;;;;;;;;;;25.70;96.60;;;;;;5091979;28;20130;-47
2021/07/29 02:14:50;;;;;;;;;;;25.60;96.60;;;;;;5067649;28;19904;-45
2021/07/29 02:17:23;;;;;;;;;;;25.70;96.60;;;;;;5068268;28;20078;-46
2021/07/29 02:19:49;;;;;;;;;;;25.60;96.60;;;;;;5087545;28;19950;-48
2021/07/29 02:22:15;;;;;;;;;;;25.60;96.70;;;;;;5093043;28;19908;-45
2021/07/29 02:24:44;;;;;;;;;;;25.60;96.70;;;;;;5091543;28;20074;-46
2021/07/29 02:27:11;;;;;;;;;;;25.60;96.60;;;;;;5088953;28;20140;-50
2021/07/29 02:29:38;;;;;;;;;;;25.60;96.60;;;;;;5092452;28;20155;-39
2021/07/29 02:32:08;;;;;;;;;;;25.60;96.60;;;;;;5091643;28;19915;-44
2021/07/29 02:34:38;;;;;;;;;;;25.60;96.70;;;;;;5091181;28;19900;-47
2021/07/29 02:37:04;;;;;;;;;;;25.60;96.90;;;;;;5093912;28;19962;-46
2021/07/29 02:39:32;;;;;;;;;;;25.60;96.80;;;;;;5085815;28;19899;-53
2021/07/29 02:41:59;;;;;;;;;;;25.60;96.60;;;;;;5106567;28;19912;-51
2021/07/29 02:44:26;;;;;;;;;;;25.70;96.60;;;;;;5105823;28;19958;-49
2021/07/29 02:46:52;;;;;;;;;;;25.70;96.70;;;;;;5088353;28;20189;-45
2021/07/29 02:49:20;;;;;;;;;;;25.70;96.60;;;;;;5106116;28;19924;-43
2021/07/29 02:51:48;;;;;;;;;;;25.70;96.70;;;;;;5105848;28;19916;-46
2021/07/29 02:54:16;;;;;;;;;;;25.70;96.80;;;;;;5087582;28;19904;-45
2021/07/29 02:56:44;;;;;;;;;;;25.70;96.90;;;;;;5087787;28;19915;-43
2021/07/29 02:59:10;;;;;;;;;;;25.70;96.80;;;;;;5102798;28;19998;-42
2021/07/29 03:01:40;;;;;;;;;;;25.70;96.60;;;;;;5105833;28;20064;-46
2021/07/29 03:04:06;;;;;;;;;;;25.70;96.70;;;;;;5106600;28;19900;-51
2021/07/29 03:06:33;;;;;;;;;;;25.70;96.90;;;;;;5106931;28;19916;-49
2021/07/29 03:09:01;;;;;;;;;;;25.70;96.90;;;;;;5107043;28;19903;-48
2021/07/29 03:11:27;;;;;;;;;;;25.70;97.00;;;;;;5072277;28;19965;-45
2021/07/29 03:13:54;;;;;;;;;;;25.70;97.10;;;;;;5106395;28;19983;-41
2021/07/29 03:16:21;;;;;;;;;;;25.70;97.20;;;;;;5106544;28;20080;-46
2021/07/29 03:18:47;;;;;;;;;;;25.70;97.10;;;;;;5071839;28;19900;-51
2021/07/29 03:21:16;;;;;;;;;;;25.70;97.10;;;;;;5105990;28;19911;-46
2021/07/29 03:23:47;;;;;;;;;;;25.70;97.10;;;;;;5105443;28;20242;-42
2021/07/29 03:26:17;;;;;;;;;;;25.70;97.30;;;;;;5084745;28;20129;-46
2021/07/29 03:28:43;;;;;;;;;;;25.70;97.00;;;;;;5087376;28;19907;-43
2021/07/29 03:31:12;;;;;;;;;;;25.70;97.00;;;;;;5087297;28;19908;-43
2021/07/29 03:33:41;;;;;;;;;;;25.70;96.90;;;;;;5102215;28;19907;-44
2021/07/29 03:36:07;;;;;;;;;;;25.70;96.90;;;;;;5086078;28;19908;-44
2021/07/29 03:38:33;;;;;;;;;;;25.70;96.90;;;;;;5072652;28;19925;-50
2021/07/29 03:41:00;;;;;;;;;;;25.70;96.90;;;;;;5081292;28;19958;-43
2021/07/29 03:43:26;;;;;;;;;;;25.70;96.90;;;;;;5084411;28;19938;-43
2021/07/29 03:45:53;;;;;;;;;;;25.70;96.80;;;;;;5084765;28;19901;-44
2021/07/29 03:48:19;;;;;;;;;;;25.70;96.80;;;;;;5084523;28;19904;-48
2021/07/29 03:50:47;;;;;;;;;;;25.70;96.80;;;;;;5065268;28;19967;-46
2021/07/29 03:53:13;;;;;;;;;;;25.70;96.80;;;;;;5091871;28;19907;-42
2021/07/29 03:55:40;;;;;;;;;;;25.70;96.80;;;;;;5084248;28;19935;-47
2021/07/29 03:58:06;;;;;;;;;;;25.70;96.70;;;;;;5084343;28;19909;-52
2021/07/29 04:00:33;;;;;;;;;;;25.70;96.70;;;;;;5084021;28;19936;-42
2021/07/29 04:03:00;;;;;;;;;;;25.70;96.70;;;;;;5066689;28;20074;-42
2021/07/29 04:05:26;;;;;;;;;;;25.70;96.70;;;;;;5084281;28;20003;-41
2021/07/29 04:07:52;;;;;;;;;;;25.70;96.70;;;;;;5084720;28;19940;-42
2021/07/29 04:10:18;;;;;;;;;;;25.70;96.60;;;;;;5083887;28;20246;-47
2021/07/29 04:12:45;;;;;;;;;;;25.70;96.60;;;;;;5084369;28;19915;-42
2021/07/29 04:15:11;;;;;;;;;;;25.70;96.80;;;;;;5083745;28;19945;-42
2021/07/29 04:17:40;;;;;;;;;;;25.70;96.60;;;;;;5084338;28;19912;-51
2021/07/29 04:20:07;;;;;;;;;;;25.70;96.60;;;;;;5083606;28;19946;-45
2021/07/29 04:22:34;;;;;;;;;;;25.70;96.60;;;;;;5084356;28;19908;-45
2021/07/29 04:25:00;;;;;;;;;;;25.70;96.60;;;;;;5083916;28;20219;-46
2021/07/29 04:27:27;;;;;;;;;;;25.70;96.60;;;;;;5084186;28;19955;-44
2021/07/29 04:29:53;;;;;;;;;;;25.70;96.70;;;;;;5083266;28;20131;-42
2021/07/29 04:32:23;;;;;;;;;;;25.70;96.70;;;;;;5083995;28;19963;-45
2021/07/29 04:34:49;;;;;;;;;;;25.70;96.70;;;;;;5083737;28;19935;-44
2021/07/29 04:37:16;;;;;;;;;;;25.60;96.60;;;;;;5083595;28;19979;-43
2021/07/29 04:39:42;;;;;;;;;;;25.70;96.60;;;;;;5094837;28;19908;-48
2021/07/29 04:42:10;;;;;;;;;;;25.60;96.60;;;;;;5084978;28;19909;-50
2021/07/29 04:44:37;;;;;;;;;;;25.60;96.60;;;;;;5084433;28;20074;-42
2021/07/29 04:47:04;;;;;;;;;;;25.60;96.60;;;;;;5085052;28;19911;-46
2021/07/29 04:49:30;;;;;;;;;;;25.60;96.60;;;;;;5084359;28;19905;-49
2021/07/29 04:51:56;;;;;;;;;;;25.60;96.70;;;;;;5084048;28;19904;-45
2021/07/29 04:54:23;;;;;;;;;;;25.60;96.60;;;;;;5084528;28;19911;-44
2021/07/29 04:56:49;;;;;;;;;;;25.60;96.60;;;;;;5084661;28;20034;-43
2021/07/29 04:59:15;;;;;;;;;;;25.60;96.60;;;;;;5084614;28;20197;-46
2021/07/29 05:01:42;;;;;;;;;;;25.60;96.60;;;;;;5084393;28;19975;-47
2021/07/29 05:04:11;;;;;;;;;;;25.60;96.60;;;;;;5083465;28;19911;-44
2021/07/29 05:06:37;;;;;;;;;;;25.60;96.60;;;;;;5084629;28;19904;-46
2021/07/29 05:09:04;;;;;;;;;;;25.60;96.60;;;;;;5083905;28;19904;-49
2021/07/29 05:11:32;;;;;;;;;;;25.60;96.60;;;;;;5066479;28;19971;-42
2021/07/29 05:13:58;;;;;;;;;;;25.50;96.60;;;;;;5066648;28;19912;-46
2021/07/29 05:16:25;;;;;;;;;;;25.50;96.60;;;;;;5084549;28;19904;-48
2021/07/29 05:18:51;;;;;;;;;;;25.60;96.60;;;;;;5084231;28;20192;-47
2021/07/29 05:21:17;;;;;;;;;;;25.50;96.60;;;;;;5084040;28;19957;-47
2021/07/29 05:23:45;;;;;;;;;;;25.50;96.60;;;;;;5066482;28;19904;-46
2021/07/29 05:26:16;;;;;;;;;;;25.50;96.70;;;;;;5084238;28;19943;-50
2021/07/29 05:28:43;;;;;;;;;;;25.50;96.70;;;;;;5066867;28;19931;-44
2021/07/29 05:31:12;;;;;;;;;;;25.50;96.70;;;;;;5084178;28;19905;-43
2021/07/29 05:33:40;;;;;;;;;;;25.50;96.70;;;;;;5083973;28;20196;-43
2021/07/29 05:36:06;;;;;;;;;;;25.50;96.70;;;;;;5084019;28;19905;-42
2021/07/29 05:38:33;;;;;;;;;;;25.50;96.70;;;;;;5083886;28;19919;-48
2021/07/29 05:41:06;;;;;;;;;;;25.50;96.70;;;;;;5091212;28;20074;-46
2021/07/29 05:43:39;;;;;;;;;;;25.50;96.70;;;;;;5092256;28;19900;-54
2021/07/29 05:46:10;;;;;;;;;;;25.50;96.60;;;;;;5089810;28;19967;-45
2021/07/29 05:48:37;;;;;;;;;;;25.50;96.60;;;;;;5092342;28;19922;-51
2021/07/29 05:51:03;;;;;;;;;;;25.50;96.60;;;;;;5065012;28;20093;-43
2021/07/29 05:53:29;;;;;;;;;;;25.50;96.60;;;;;;5092361;28;20124;-44
2021/07/29 05:55:56;;;;;;;;;;;25.50;96.60;;;;;;5092346;28;20117;-41
2021/07/29 05:58:22;;;;;;;;;;;25.50;96.70;;;;;;5093903;28;19942;-43
2021/07/29 06:00:50;;;;;;;;;;;25.50;96.60;;;;;;5092300;28;19904;-45
2021/07/29 06:03:16;;;;;;;;;;;25.40;96.60;;;;;;5092037;28;19900;-46
2021/07/29 06:05:42;;;;;;;;;;;25.50;96.60;;;;;;5091857;28;19911;-48
2021/07/29 06:08:08;;;;;;;;;;;25.40;96.60;;;;;;5089663;28;20009;-42
2021/07/29 06:10:35;;;;;;;;;;;25.40;96.50;;;;;;5083792;28;19901;-42
2021/07/29 06:13:01;;;;;;;;;;;25.40;96.60;;;;;;5084216;28;19981;-45
2021/07/29 06:15:27;;;;;;;;;;;25.40;96.60;;;;;;5086733;28;19900;-44
2021/07/29 06:17:59;;;;;;;;;;;25.40;96.60;;;;;;5087978;28;20181;-45
2021/07/29 06:20:25;;;;;;;;;;;25.40;96.60;;;;;;5102571;28;19915;-43
2021/07/29 06:22:52;;;;;;;;;;;25.40;96.60;;;;;;5088087;28;19946;-46
2021/07/29 06:25:21;;;;;;;;;;;25.40;96.80;;;;;;5103001;28;20101;-51
2021/07/29 06:27:49;;;;;;;;;;;25.40;96.70;;;;;;5103112;28;19936;-50
2021/07/29 06:30:16;;;;;;;;;;;25.40;96.70;;;;;;5087453;28;19900;-43
2021/07/29 06:32:42;;;;;;;;;;;25.40;96.70;;;;;;5087575;28;19909;-44
2021/07/29 06:35:09;;;;;;;;;;;25.40;96.70;;;;;;5087278;28;20183;-42
2021/07/29 06:37:35;;;;;;;;;;;25.40;96.60;;;;;;5093869;28;19922;-47
2021/07/29 06:40:02;;;;;;;;;;;25.40;96.60;;;;;;5106862;28;19904;-41
2021/07/29 06:42:29;;;;;;;;;;;25.40;96.60;;;;;;5107814;28;20078;-43
2021/07/29 06:44:56;;;;;;;;;;;25.40;96.60;;;;;;5107403;28;19907;-46
2021/07/29 06:47:24;;;;;;;;;;;25.40;96.60;;;;;;5107243;28;19980;-44
2021/07/29 06:49:53;;;;;;;;;;;25.40;96.70;;;;;;5107285;28;19945;-43
2021/07/29 06:52:19;;;;;;;;;;;25.40;96.70;;;;;;5107139;28;19953;-42
2021/07/29 06:54:45;;;;;;;;;;;25.30;96.70;;;;;;5107070;28;19906;-42
2021/07/29 06:57:14;;;;;;;;;;;25.30;96.60;;;;;;5122928;28;19945;-48
2021/07/29 06:59:40;;;;;;;;;;;25.30;96.70;;;;;;5107041;28;20302;-49
2021/07/29 07:02:06;;;;;;;;;;;25.40;96.70;;;;;;5106313;28;19908;-41
2021/07/29 07:04:33;;;;;;;;;;;25.30;96.60;;;;;;5106790;28;19900;-40
2021/07/29 07:07:00;;;;;;;;;;;25.30;96.70;;;;;;5106261;28;19998;-43
2021/07/29 07:09:31;;;;;;;;;;;25.30;96.70;;;;;;5106737;28;19900;-44
2021/07/29 07:11:57;;;;;;;;;;;25.30;96.60;;;;;;5107155;28;20179;-44
2021/07/29 07:14:24;;;;;;;;;;;25.30;96.70;;;;;;5106699;28;20115;-43
2021/07/29 07:16:50;;;;;;;;;;;25.30;96.70;;;;;;5106826;28;19975;-47
2021/07/29 07:19:16;;;;;;;;;;;25.30;96.70;;;;;;5106867;28;19900;-44
2021/07/29 07:21:44;;;;;;;;;;;25.30;96.70;;;;;;5106755;28;20144;-46
2021/07/29 07:24:12;;;;;;;;;;;25.40;96.70;;;;;;5106466;28;20211;-42
2021/07/29 07:26:38;;;;;;;;;;;25.30;96.70;;;;;;5106449;28;19908;-51
2021/07/29 07:29:05;;;;;;;;;;;25.30;96.70;;;;;;5106534;28;20252;-51
2021/07/29 07:31:31;;;;;;;;;;;25.30;96.70;;;;;;5103927;28;19908;-51
2021/07/29 07:33:58;;;;;;;;;;;25.30;96.70;;;;;;5106325;28;19923;-44
2021/07/29 07:36:25;;;;;;;;;;;25.30;96.80;;;;;;5106375;28;19915;-50
2021/07/29 07:38:52;;;;;;;;;;;25.30;96.80;;;;;;5106439;28;19912;-44
2021/07/29 07:41:19;;;;;;;;;;;25.30;96.80;;;;;;5106266;28;19927;-46
2021/07/29 07:43:45;;;;;;;;;;;25.30;97.10;;;;;;5122110;28;19911;-50
2021/07/29 07:46:12;;;;;;;;;;;25.30;96.90;;;;;;5106124;28;19938;-41
2021/07/29 07:48:38;;;;;;;;;;;25.30;96.90;;;;;;5105998;28;19904;-43
2021/07/29 07:51:04;;;;;;;;;;;25.30;96.90;;;;;;5105995;28;20184;-46
2021/07/29 07:53:30;;;;;;;;;;;25.30;96.90;;;;;;5106028;28;20215;-47
2021/07/29 07:55:57;;;;;;;;;;;25.30;97.00;;;;;;5105884;28;19904;-44
2021/07/29 07:58:23;;;;;;;;;;;25.30;97.00;;;;;;5105895;28;19926;-44
2021/07/29 08:00:50;;;;;;;;;;;25.30;96.90;;;;;;5105718;28;19904;-44
2021/07/29 08:03:16;;;;;;;;;;;25.30;97.20;;;;;;5105628;28;19911;-47
2021/07/29 08:05:43;;;;;;;;;;;25.40;96.90;;;;;;5105576;28;19979;-42
2021/07/29 08:08:09;;;;;;;;;;;25.40;97.00;;;;;;5087213;28;20124;-43
2021/07/29 08:10:36;;;;;;;;;;;25.30;96.90;;;;;;5105589;28;19900;-51
2021/07/29 08:13:03;;;;;;;;;;;25.30;97.00;;;;;;5106087;28;20111;-47
2021/07/29 08:15:29;;;;;;;;;;;25.30;97.00;;;;;;5105692;28;19943;-43
2021/07/29 08:17:56;;;;;;;;;;;25.30;97.10;;;;;;5105319;28;20130;-47
2021/07/29 08:20:24;;;;;;;;;;;25.30;97.10;;;;;;5105382;28;19919;-48
2021/07/29 08:22:53;;;;;;;;;;;25.30;97.10;;;;;;5105831;28;19927;-49
2021/07/29 08:25:21;;;;;;;;;;;25.30;97.20;;;;;;5105207;28;19908;-46
2021/07/29 08:27:47;;;;;;;;;;;25.30;97.20;;;;;;5105737;28;19907;-43
2021/07/29 08:30:15;;;;;;;;;;;25.30;97.20;;;;;;5105453;28;19957;-43
2021/07/29 08:32:46;;;;;;;;;;;25.30;97.20;;;;;;5105470;28;19900;-50
2021/07/29 08:35:12;;;;;;;;;;;25.30;97.20;;;;;;5105271;28;19915;-49
2021/07/29 08:37:43;;;;;;;;;;;25.30;97.20;;;;;;5086351;28;19991;-43
2021/07/29 08:40:10;;;;;;;;;;;25.30;97.20;;;;;;5104907;28;19907;-44
2021/07/29 08:42:36;;;;;;;;;;;25.30;97.20;;;;;;5105654;28;19904;-49
2021/07/29 08:45:03;;;;;;;;;;;25.30;97.20;;;;;;5104112;28;20013;-47
2021/07/29 08:47:32;;;;;;;;;;;25.30;97.20;;;;;;5105290;28;19942;-47
2021/07/29 08:50:01;;;;;;;;;;;25.30;97.40;;;;;;5104757;28;20156;-42
2021/07/29 08:52:29;;;;;;;;;;;25.30;97.20;;;;;;5086057;28;20184;-43
2021/07/29 08:54:55;;;;;;;;;;;25.30;97.20;;;;;;5104895;28;19923;-42
2021/07/29 08:57:28;;;;;;;;;;;25.30;97.20;;;;;;5105218;28;19926;-41
2021/07/29 08:59:59;;;;;;;;;;;25.30;97.20;;;;;;5104741;28;19904;-47
2021/07/29 09:02:26;;;;;;;;;;;25.30;97.20;;;;;;5105235;28;19965;-48
2021/07/29 09:05:11;;;;;;;;;;;25.30;97.20;;;;;;5104784;28;19904;-45
2021/07/29 09:07:38;;;;;;;;;;;25.30;97.20;;;;;;5105054;28;19904;-42
2021/07/29 09:10:21;;;;;;;;;;;25.30;97.20;;;;;;5104254;28;19904;-43
2021/07/29 09:13:06;;;;;;;;;;;25.30;97.20;;;;;;5105025;28;20049;-47
2021/07/29 09:15:32;;;;;;;;;;;25.30;97.20;;;;;;5104301;28;19967;-46
2021/07/29 09:17:59;;;;;;;;;;;25.30;97.20;;;;;;5104409;28;20196;-45
2021/07/29 09:20:25;;;;;;;;;;;25.30;97.20;;;;;;5104405;28;19994;-43
2021/07/29 09:22:53;;;;;;;;;;;25.30;97.20;;;;;;5105049;28;19904;-50
2021/07/29 09:25:22;;;;;;;;;;;25.30;97.30;;;;;;5104148;28;20206;-42
2021/07/29 09:27:50;;;;;;;;;;;25.30;97.20;;;;;;5086688;28;19903;-45
2021/07/29 09:30:21;;;;;;;;;;;25.30;97.30;;;;;;5104425;28;19974;-43
2021/07/29 09:32:55;;;;;;;;;;;25.30;97.20;;;;;;5104748;28;19912;-43
2021/07/29 09:35:31;;;;;;;;;;;25.30;97.20;;;;;;5104468;28;19904;-43
2021/07/29 09:37:59;;;;;;;;;;;25.30;97.30;;;;;;5103983;28;19938;-43
2021/07/29 09:40:26;;;;;;;;;;;25.30;97.30;;;;;;5104118;28;19915;-44
2021/07/29 09:43:10;;;;;;;;;;;25.30;97.30;;;;;;5104278;28;19904;-45
2021/07/29 09:45:37;;;;;;;;;;;25.30;97.40;;;;;;5104510;28;19904;-49
2021/07/29 09:48:07;;;;;;;;;;;25.30;97.30;;;;;;5104154;28;19915;-44
2021/07/29 09:50:33;;;;;;;;;;;25.30;97.30;;;;;;5107278;28;19899;-42
2021/07/29 09:53:00;;;;;;;;;;;25.30;97.40;;;;;;5108902;28;20176;-45
2021/07/29 09:55:27;;;;;;;;;;;25.30;97.40;;;;;;5107245;28;20009;-46
2021/07/29 09:57:55;;;;;;;;;;;25.30;97.60;;;;;;5108570;28;19915;-43
2021/07/29 10:00:22;;;;;;;;;;;25.30;97.40;;;;;;5108160;28;19978;-46
2021/07/29 10:02:48;;;;;;;;;;;25.30;97.40;;;;;;5108572;28;20189;-45
2021/07/29 10:05:19;;;;;;;;;;;25.30;97.30;;;;;;5108153;28;19912;-47
2021/07/29 10:07:50;;;;;;;;;;;25.30;97.40;;;;;;5108301;28;20119;-42
2021/07/29 10:10:21;;;;;;;;;;;25.30;97.40;;;;;;5107700;28;19983;-42
2021/07/29 10:12:51;;;;;;;;;;;25.30;97.50;;;;;;5108273;28;20089;-52
2021/07/29 10:15:37;;;;;;;;;;;25.30;97.40;;;;;;5107704;28;19939;-43
2021/07/29 10:18:03;;;;;;;;;;;25.30;97.50;;;;;;5107103;28;19978;-42
2021/07/29 10:20:33;;;;;;;;;;;25.30;97.50;;;;;;5107898;28;19943;-46
2021/07/29 10:23:15;;;;;;;;;;;25.30;97.50;;;;;;5089361;28;20042;-47
2021/07/29 10:25:53;;;;;;;;;;;25.30;97.50;;;;;;5107584;28;19904;-51
2021/07/29 10:28:29;;;;;;;;;;;25.30;97.50;;;;;;5107406;28;20206;-50
2021/07/29 10:30:56;;;;;;;;;;;25.30;97.60;;;;;;5107371;28;19908;-47
2021/07/29 10:33:27;;;;;;;;;;;25.30;97.50;;;;;;5107629;28;20196;-42
2021/07/29 10:35:53;;;;;;;;;;;25.30;97.50;;;;;;5107135;28;20200;-48
2021/07/29 10:38:38;;;;;;;;;;;25.30;97.50;;;;;;5107278;28;19916;-48
2021/07/29 10:41:07;;;;;;;;;;;25.30;97.60;;;;;;5107049;28;19907;-50
2021/07/29 10:43:39;;;;;;;;;;;25.30;97.60;;;;;;5107098;28;19975;-42
2021/07/29 10:46:06;;;;;;;;;;;25.30;97.60;;;;;;5107460;28;19927;-45
2021/07/29 10:48:47;;;;;;;;;;;25.30;97.60;;;;;;5106957;28;19941;-51
2021/07/29 10:51:16;;;;;;;;;;;25.30;97.60;;;;;;5107399;28;19907;-48
2021/07/29 10:53:53;;;;;;;;;;;25.30;97.60;;;;;;5106767;28;19915;-47
2021/07/29 10:56:20;;;;;;;;;;;25.30;97.60;;;;;;5088721;28;19906;-44
2021/07/29 10:58:47;;;;;;;;;;;25.20;97.80;;;;;;5106985;28;19975;-46
2021/07/29 11:01:15;;;;;;;;;;;25.30;97.60;;;;;;5106551;28;19912;-49
2021/07/29 11:03:50;;;;;;;;;;;25.30;97.60;;;;;;5106836;28;19949;-48
2021/07/29 11:06:28;;;;;;;;;;;25.30;97.60;;;;;;5106851;28;19971;-43
2021/07/29 11:08:54;;;;;;;;;;;25.30;97.60;;;;;;5103970;28;19912;-46
2021/07/29 11:11:21;;;;;;;;;;;25.30;97.60;;;;;;5106734;28;20041;-50
2021/07/29 11:13:47;;;;;;;;;;;25.30;97.60;;;;;;5106601;28;19900;-43
2021/07/29 11:16:15;;;;;;;;;;;25.30;97.60;;;;;;5088235;28;19908;-41
2021/07/29 11:18:41;;;;;;;;;;;25.30;97.60;;;;;;5088522;28;20193;-42
2021/07/29 11:21:28;;;;;;;;;;;25.30;97.60;;;;;;5064175;28;19913;-46
2021/07/29 11:23:54;;;;;;;;;;;25.30;97.60;;;;;;5063707;28;19915;-46
2021/07/29 11:26:21;;;;;;;;;;;25.30;97.60;;;;;;5063961;28;19909;-44
2021/07/29 11:29:08;;;;;;;;;;;25.20;97.60;;;;;;5064248;28;19936;-42
2021/07/29 11:31:37;;;;;;;;;;;25.30;97.60;;;;;;5064178;28;20209;-43
2021/07/29 11:34:04;;;;;;;;;;;25.30;97.60;;;;;;5063629;28;19905;-42
2021/07/29 11:36:32;;;;;;;;;;;25.30;97.60;;;;;;5064030;28;19947;-45
2021/07/29 11:39:00;;;;;;;;;;;25.30;97.60;;;;;;5063658;28;20193;-49
2021/07/29 11:41:29;;;;;;;;;;;25.20;97.50;;;;;;5063836;28;19916;-46
2021/07/29 11:44:03;;;;;;;;;;;25.30;97.50;;;;;;5063879;28;19905;-48
2021/07/29 11:46:32;;;;;;;;;;;25.30;97.50;;;;;;5063763;28;19912;-55
2021/07/29 11:49:01;;;;;;;;;;;25.30;97.50;;;;;;5063722;28;19911;-50
2021/07/29 11:51:28;;;;;;;;;;;25.30;97.50;;;;;;5063649;28;19988;-51
2021/07/29 11:53:54;;;;;;;;;;;25.30;97.20;;;;;;5062880;28;19972;-50
2021/07/29 11:56:23;;;;;;;;;;;25.20;96.90;;;;;;5047054;28;20132;-46
2021/07/29 11:58:57;;;;;;;;;;;25.20;96.80;;;;;;5066640;28;19908;-42
2021/07/29 12:01:23;;;;;;;;;;;25.20;96.70;;;;;;5105824;28;19908;-42
2021/07/29 12:03:52;;;;;;;;;;;25.20;96.70;;;;;;5105155;28;20088;-46
2021/07/29 12:06:20;;;;;;;;;;;25.20;96.70;;;;;;5087499;28;19904;-42
2021/07/29 12:08:48;;;;;;;;;;;25.10;96.60;;;;;;5087546;28;20178;-42
2021/07/29 12:11:15;;;;;;;;;;;25.10;96.60;;;;;;5104425;28;20203;-44
2021/07/29 12:13:44;;;;;;;;;;;25.10;96.50;;;;;;5085907;28;19904;-47
2021/07/29 12:16:11;;;;;;;;;;;25.10;96.50;;;;;;5087684;28;19907;-45
2021/07/29 12:18:38;;;;;;;;;;;25.10;96.50;;;;;;5105311;28;19966;-46
2021/07/29 12:21:08;;;;;;;;;;;25.10;96.50;;;;;;5105064;28;19908;-48
2021/07/29 12:23:35;;;;;;;;;;;25.10;96.50;;;;;;5105196;28;19972;-49
2021/07/29 12:26:14;;;;;;;;;;;25.00;96.40;;;;;;5105115;28;19911;-51
2021/07/29 12:28:43;;;;;;;;;;;25.00;96.40;;;;;;5105248;28;19904;-46
2021/07/29 12:31:19;;;;;;;;;;;25.00;96.40;;;;;;5105367;28;20167;-46
2021/07/29 12:33:48;;;;;;;;;;;25.00;96.50;;;;;;5104971;28;19939;-44
2021/07/29 12:36:14;;;;;;;;;;;25.00;96.50;;;;;;5105272;28;19904;-42
2021/07/29 12:38:40;;;;;;;;;;;24.90;96.50;;;;;;5105042;28;19995;-41
2021/07/29 12:41:07;;;;;;;;;;;24.90;96.50;;;;;;5104430;28;19911;-48
2021/07/29 12:43:34;;;;;;;;;;;25.00;96.60;;;;;;5104418;28;19946;-42
2021/07/29 12:46:02;;;;;;;;;;;24.90;96.50;;;;;;5104948;28;20165;-45
2021/07/29 12:48:29;;;;;;;;;;;24.90;96.60;;;;;;5104985;28;19900;-44
2021/07/29 12:50:56;;;;;;;;;;;24.90;96.60;;;;;;5086218;28;19912;-45
2021/07/29 12:53:22;;;;;;;;;;;24.90;96.70;;;;;;5103554;28;20192;-41
2021/07/29 12:55:50;;;;;;;;;;;24.90;96.70;;;;;;5103649;28;19900;-45
2021/07/29 12:58:17;;;;;;;;;;;24.90;96.70;;;;;;5104620;28;19936;-46
2021/07/29 13:00:44;;;;;;;;;;;24.90;96.80;;;;;;5086134;28;20157;-47
2021/07/29 13:03:16;;;;;;;;;;;25.00;96.80;;;;;;5103893;28;20222;-43
2021/07/29 13:05:42;;;;;;;;;;;25.00;96.80;;;;;;5104043;28;20180;-41
2021/07/29 13:08:08;;;;;;;;;;;25.00;96.90;;;;;;5104220;28;19971;-51
2021/07/29 13:10:35;;;;;;;;;;;25.00;96.80;;;;;;5104425;28;19922;-43
2021/07/29 13:13:01;;;;;;;;;;;25.00;96.90;;;;;;5105189;28;19904;-43
2021/07/29 13:15:27;;;;;;;;;;;25.10;97.00;;;;;;5104026;28;19908;-48
2021/07/29 13:17:54;;;;;;;;;;;25.10;97.00;;;;;;5103854;28;19904;-48
2021/07/29 13:20:21;;;;;;;;;;;25.10;97.20;;;;;;5103569;28;19965;-52
2021/07/29 13:22:47;;;;;;;;;;;25.10;97.50;;;;;;5103782;28;20172;-56
2021/07/29 13:25:13;;;;;;;;;;;25.10;97.10;;;;;;5103208;28;19971;-51
2021/07/29 13:27:39;;;;;;;;;;;25.10;97.30;;;;;;5103915;28;20088;-56
2021/07/29 13:30:05;;;;;;;;;;;25.10;97.60;;;;;;5103693;28;19904;-48
2021/07/29 13:32:32;;;;;;;;;;;25.20;97.50;;;;;;5103564;28;19911;-47
2021/07/29 13:34:58;;;;;;;;;;;25.20;97.50;;;;;;5103565;28;19983;-43
2021/07/29 13:37:24;;;;;;;;;;;25.30;97.60;;;;;;5103504;28;20193;-44
2021/07/29 13:39:50;;;;;;;;;;;25.30;97.20;;;;;;5103644;28;19919;-48
2021/07/29 13:42:16;;;;;;;;;;;25.30;97.30;;;;;;5104625;28;19999;-46
2021/07/29 13:44:51;;;;;;;;;;;25.30;97.40;;;;;;5104353;28;19904;-43
2021/07/29 13:47:17;;;;;;;;;;;25.30;97.40;;;;;;5103947;28;20206;-44
2021/07/29 13:49:43;;;;;;;;;;;25.40;97.40;;;;;;5104022;28;19939;-46
2021/07/29 13:52:11;;;;;;;;;;;25.40;97.40;;;;;;5104562;28;19907;-43
2021/07/29 13:54:37;;;;;;;;;;;25.40;97.50;;;;;;5104037;28;19920;-45
2021/07/29 13:57:03;;;;;;;;;;;25.40;97.50;;;;;;5104409;28;19907;-44
2021/07/29 13:59:30;;;;;;;;;;;25.40;97.70;;;;;;5104251;28;19915;-41
2021/07/29 14:01:56;;;;;;;;;;;25.40;97.70;;;;;;5104294;28;20182;-41
2021/07/29 14:04:22;;;;;;;;;;;25.40;97.50;;;;;;5104151;28;20131;-46
2021/07/29 14:06:49;;;;;;;;;;;25.40;97.70;;;;;;5104457;28;20196;-46
2021/07/29 14:09:15;;;;;;;;;;;25.40;97.70;;;;;;5104032;28;19904;-48
2021/07/29 14:11:41;;;;;;;;;;;25.40;97.00;;;;;;5104452;28;19938;-46
2021/07/29 14:14:08;;;;;;;;;;;25.40;97.30;;;;;;5103941;28;19904;-45
2021/07/29 14:16:34;;;;;;;;;;;25.40;97.60;;;;;;5104493;28;19904;-48
2021/07/29 14:19:03;;;;;;;;;;;25.40;97.60;;;;;;5103809;28;19920;-47
2021/07/29 14:22:51;;;;;;;;;;;25.50;97.90;;;;;;5103783;28;19912;-47
2021/07/29 14:24:17;;;;;;;;;;;25.50;98.00;;;;;;5103730;28;19927;-45